Time,TemperatureF,DewpointF,PressureIn,WindDirection,WindDirectionDegrees,WindSpeedMPH,WindSpeedGustMPH,Humidity,HourlyPrecipIn,Conditions,Clouds,dailyrainin,SoftwareType,DateUTC
2014-04-11 00:23:00,59.0,41.0,30.12,North,0,0.0,2.0,51,0.00,,,0.00,,2014-04-11 04:23:00,
2014-04-11 00:53:00,58.0,41.0,30.13,North,0,0.0,0.0,53,0.00,,,0.00,,2014-04-11 04:53:00,
2014-04-11 01:22:00,57.0,41.0,30.12,North,0,0.0,3.0,56,0.00,,,0.00,,2014-04-11 05:22:00,
2014-04-11 01:33:00,57.0,41.0,30.12,North,0,0.0,3.0,56,0.00,,,0.00,,2014-04-11 05:33:00,
2014-04-11 01:52:00,56.0,42.0,30.12,North,0,0.0,3.0,59,0.00,,,0.00,,2014-04-11 05:52:00,
2014-04-11 02:02:00,56.0,42.0,30.12,North,0,0.0,3.0,59,0.00,,,0.00,,2014-04-11 06:02:00,
2014-04-11 02:22:00,56.0,42.0,30.11,North,0,0.0,3.0,59,0.00,,,0.00,,2014-04-11 06:22:00,
2014-04-11 02:42:00,56.0,41.0,30.11,SSE,153,1.0,10.0,58,0.00,,,0.00,,2014-04-11 06:42:00,
2014-04-11 02:52:00,56.0,41.0,30.11,SSE,153,1.0,10.0,58,0.00,,,0.00,,2014-04-11 06:52:00,
2014-04-11 03:22:00,55.0,41.0,30.10,North,0,0.0,4.0,60,0.00,,,0.00,,2014-04-11 07:22:00,
2014-04-11 03:52:00,55.0,42.0,30.10,North,0,0.0,3.0,61,0.00,,,0.00,,2014-04-11 07:52:00,
2014-04-11 04:12:00,55.0,42.0,30.10,North,0,0.0,3.0,62,0.00,,,0.00,,2014-04-11 08:12:00,
2014-04-11 04:22:00,55.0,42.0,30.10,North,0,0.0,3.0,62,0.00,,,0.00,,2014-04-11 08:22:00,
2014-04-11 04:52:00,54.0,43.0,30.10,North,0,0.0,6.0,65,0.00,,,0.00,,2014-04-11 08:52:00,
2014-04-11 05:02:00,54.0,43.0,30.10,North,0,0.0,6.0,65,0.00,,,0.00,,2014-04-11 09:02:00,
2014-04-11 05:11:00,54.0,43.0,30.10,North,0,0.0,6.0,65,0.00,,,0.00,,2014-04-11 09:11:00,
2014-04-11 05:22:00,54.0,43.0,30.10,North,0,0.0,6.0,65,0.00,,,0.00,,2014-04-11 09:22:00,
2014-04-11 05:54:00,52.0,42.0,30.11,North,0,0.0,2.0,69,0.00,,,0.00,,2014-04-11 09:54:00,
2014-04-11 06:23:00,52.0,43.0,30.12,North,0,0.0,2.0,71,0.00,,,0.00,,2014-04-11 10:23:00,
2014-04-11 06:33:00,52.0,43.0,30.12,North,0,0.0,2.0,71,0.00,,,0.00,,2014-04-11 10:33:00,
2014-04-11 06:53:00,51.0,43.0,30.13,North,0,0.0,2.0,73,0.00,,,0.00,,2014-04-11 10:53:00,
2014-04-11 07:03:00,51.0,43.0,30.13,North,0,0.0,2.0,73,0.00,,,0.00,,2014-04-11 11:03:00,
2014-04-11 07:22:00,50.0,42.0,30.15,North,0,0.0,0.0,74,0.00,,,0.00,,2014-04-11 11:22:00,
2014-04-11 07:53:00,50.0,43.0,30.15,North,0,0.0,3.0,76,0.00,,,0.00,,2014-04-11 11:53:00,
2014-04-11 08:02:00,50.0,43.0,30.15,North,0,0.0,3.0,76,0.00,,,0.00,,2014-04-11 12:02:00,
2014-04-11 08:22:00,52.0,44.0,30.16,SSE,153,1.0,5.0,75,0.00,,,0.00,,2014-04-11 12:22:00,
2014-04-11 08:32:00,52.0,44.0,30.16,SSE,153,1.0,5.0,75,0.00,,,0.00,,2014-04-11 12:32:00,
2014-04-11 08:42:00,52.0,44.0,30.16,SSE,153,1.0,5.0,75,0.00,,,0.00,,2014-04-11 12:42:00,
2014-04-11 08:52:00,52.0,44.0,30.16,SSE,153,1.0,5.0,75,0.00,,,0.00,,2014-04-11 12:52:00,
2014-04-11 09:22:00,56.0,46.0,30.16,SE,142,2.0,9.0,70,0.00,,,0.00,,2014-04-11 13:22:00,
2014-04-11 09:32:00,56.0,46.0,30.16,SE,142,2.0,9.0,70,0.00,,,0.00,,2014-04-11 13:32:00,
2014-04-11 09:42:00,56.0,46.0,30.16,SE,142,2.0,9.0,70,0.00,,,0.00,,2014-04-11 13:42:00,
2014-04-11 09:53:00,56.0,46.0,30.16,SE,142,2.0,9.0,70,0.00,,,0.00,,2014-04-11 13:53:00,
2014-04-11 10:11:00,62.0,48.0,30.16,SE,145,3.0,7.0,60,0.00,,,0.00,,2014-04-11 14:11:00,
2014-04-11 10:22:00,62.0,48.0,30.16,SE,145,3.0,7.0,60,0.00,,,0.00,,2014-04-11 14:22:00,
2014-04-11 10:52:00,67.0,48.0,30.15,SE,143,6.0,12.0,51,0.00,,,0.00,,2014-04-11 14:52:00,
2014-04-11 11:12:00,68.0,50.0,30.15,SSW,197,3.0,11.0,52,0.00,,,0.00,,2014-04-11 15:12:00,
2014-04-11 11:22:00,68.0,50.0,30.15,SSW,197,3.0,11.0,52,0.00,,,0.00,,2014-04-11 15:22:00,
2014-04-11 11:44:00,71.0,49.0,30.14,NW,322,2.0,9.0,46,0.00,,,0.00,,2014-04-11 15:44:00,
2014-04-11 11:54:00,71.0,49.0,30.14,NW,322,2.0,9.0,46,0.00,,,0.00,,2014-04-11 15:54:00,
2014-04-11 12:23:00,73.0,50.0,30.11,North,0,0.0,11.0,44,0.00,,,0.00,,2014-04-11 16:23:00,
2014-04-11 12:33:00,73.0,50.0,30.11,North,0,0.0,11.0,44,0.00,,,0.00,,2014-04-11 16:33:00,
2014-04-11 12:53:00,74.0,49.0,30.10,South,189,1.0,14.0,42,0.00,,,0.00,,2014-04-11 16:53:00,
2014-04-11 13:02:00,74.0,49.0,30.10,South,189,1.0,14.0,42,0.00,,,0.00,,2014-04-11 17:02:00,
2014-04-11 13:13:00,74.0,49.0,30.10,South,189,1.0,14.0,42,0.00,,,0.00,,2014-04-11 17:13:00,
2014-04-11 13:22:00,74.0,49.0,30.10,South,189,1.0,14.0,42,0.00,,,0.00,,2014-04-11 17:22:00,
2014-04-11 14:22:00,76.0,48.0,30.06,SSE,151,6.0,14.0,37,0.00,,,0.00,,2014-04-11 18:22:00,
2014-04-11 14:43:00,77.0,49.0,30.05,WSW,247,1.0,10.0,38,0.00,,,0.00,,2014-04-11 18:43:00,
2014-04-11 15:52:00,77.0,50.0,30.01,NNW,336,1.0,6.0,39,0.00,,,0.00,,2014-04-11 19:52:00,
2014-04-11 16:02:00,77.0,50.0,30.01,NNW,336,1.0,6.0,39,0.00,,,0.00,,2014-04-11 20:02:00,
2014-04-11 16:22:00,77.0,50.0,30.01,NNW,336,1.0,6.0,39,0.00,,,0.00,,2014-04-11 20:22:00,
2014-04-11 16:52:00,76.0,50.0,29.99,SW,231,2.0,18.0,40,0.00,,,0.00,,2014-04-11 20:52:00,
2014-04-11 17:12:00,76.0,51.0,30.00,SE,141,3.0,17.0,42,0.00,,,0.00,,2014-04-11 21:12:00,
2014-04-11 17:22:00,76.0,51.0,30.00,SE,141,3.0,17.0,42,0.00,,,0.00,,2014-04-11 21:22:00,
2014-04-11 17:33:00,76.0,51.0,30.00,SE,141,3.0,17.0,42,0.00,,,0.00,,2014-04-11 21:33:00,
2014-04-11 18:23:00,75.0,52.0,30.00,SSE,163,2.0,6.0,44,0.00,,,0.00,,2014-04-11 22:23:00,
2014-04-11 18:33:00,75.0,52.0,30.00,SSE,163,2.0,6.0,44,0.00,,,0.00,,2014-04-11 22:33:00,
2014-04-11 18:53:00,74.0,51.0,30.01,North,0,0.0,7.0,45,0.00,,,0.00,,2014-04-11 22:53:00,
2014-04-11 19:22:00,74.0,51.0,30.01,North,0,0.0,12.0,45,0.00,,,0.00,,2014-04-11 23:22:00,
2014-04-11 19:33:00,74.0,51.0,30.01,North,0,0.0,12.0,45,0.00,,,0.00,,2014-04-11 23:33:00,
2014-04-11 19:52:00,72.0,50.0,30.01,North,0,0.0,9.0,46,0.00,,,0.00,,2014-04-11 23:52:00,
2014-04-11 20:02:00,72.0,50.0,30.01,North,0,0.0,9.0,46,0.00,,,0.00,,2014-04-12 00:02:00,
2014-04-11 20:12:00,72.0,50.0,30.01,North,0,0.0,9.0,46,0.00,,,0.00,,2014-04-12 00:12:00,
2014-04-11 20:22:00,72.0,50.0,30.01,North,0,0.0,9.0,46,0.00,,,0.00,,2014-04-12 00:22:00,
2014-04-11 20:52:00,70.0,50.0,30.03,North,0,0.0,1.0,49,0.00,,,0.00,,2014-04-12 00:52:00,
2014-04-11 21:11:00,69.0,50.0,30.03,North,0,0.0,1.0,51,0.00,,,0.00,,2014-04-12 01:11:00,
2014-04-11 21:22:00,69.0,50.0,30.03,North,0,0.0,1.0,51,0.00,,,0.00,,2014-04-12 01:22:00,
2014-04-11 21:32:00,69.0,50.0,30.03,North,0,0.0,1.0,51,0.00,,,0.00,,2014-04-12 01:32:00,
2014-04-11 21:52:00,66.0,49.0,30.05,North,0,0.0,2.0,55,0.00,,,0.00,,2014-04-12 01:52:00,
2014-04-11 22:03:00,66.0,49.0,30.05,North,0,0.0,2.0,55,0.00,,,0.00,,2014-04-12 02:03:00,
2014-04-11 22:22:00,65.0,49.0,30.06,North,0,0.0,0.0,57,0.00,,,0.00,,2014-04-12 02:22:00,
2014-04-11 22:32:00,65.0,49.0,30.06,North,0,0.0,0.0,57,0.00,,,0.00,,2014-04-12 02:32:00,
2014-04-11 22:52:00,64.0,49.0,30.06,North,0,0.0,2.0,59,0.00,,,0.00,,2014-04-12 02:52:00,
2014-04-11 22:54:00,64.0,50.0,30.06,North,0,0.0,0.0,60,0.00,,,0.00,,2014-04-12 02:54:00,
2014-04-11 23:02:00,64.0,49.0,30.06,North,0,0.0,2.0,59,0.00,,,0.00,,2014-04-12 03:02:00,
2014-04-11 23:22:00,64.0,50.0,30.06,North,0,0.0,0.0,60,0.00,,,0.00,,2014-04-12 03:22:00,
2014-04-11 23:33:00,64.0,50.0,30.06,North,0,0.0,0.0,60,0.00,,,0.00,,2014-04-12 03:33:00,